createdAt,value
2022-09-20T00:00:29.980Z,1017.11
2022-09-20T00:01:30.123Z,1017.12
2022-09-20T00:02:29.975Z,1017.12
2022-09-20T00:03:29.974Z,1017.15
2022-09-20T00:04:29.975Z,1017.14
2022-09-20T00:05:30.079Z,1017.17
2022-09-20T00:06:29.979Z,1017.13
2022-09-20T00:07:29.963Z,1017.14
2022-09-20T00:08:29.958Z,1017.13
2022-09-20T00:09:29.958Z,1017.10
2022-09-20T00:10:29.951Z,1017.11
2022-09-20T00:11:29.951Z,1017.13
2022-09-20T00:12:29.962Z,1017.12
2022-09-20T00:13:29.949Z,1017.16
2022-09-20T00:14:29.946Z,1017.12
2022-09-20T00:15:29.941Z,1017.10
2022-09-20T00:16:29.977Z,1017.13
2022-09-20T00:17:29.937Z,1017.11
2022-09-20T00:18:29.935Z,1017.15
2022-09-20T00:19:29.929Z,1017.13
2022-09-20T00:20:29.928Z,1017.15
2022-09-20T00:21:29.948Z,1017.12
2022-09-20T00:22:29.925Z,1017.11
2022-09-20T00:23:29.921Z,1017.13
2022-09-20T00:24:29.916Z,1017.11
2022-09-20T00:25:29.917Z,1017.09
2022-09-20T00:26:29.911Z,1017.07
2022-09-20T00:27:29.917Z,1017.09
2022-09-20T00:28:29.907Z,1017.10
2022-09-20T00:29:29.910Z,1017.09
2022-09-20T00:30:29.903Z,1017.12
2022-09-20T00:31:29.973Z,1017.10
2022-09-20T00:32:29.896Z,1017.05
2022-09-20T00:33:29.897Z,1017.11
2022-09-20T00:34:29.889Z,1017.10
2022-09-20T00:35:29.892Z,1017.08
2022-09-20T00:36:29.889Z,1017.09
2022-09-20T00:37:29.905Z,1017.11
2022-09-20T00:38:29.889Z,1017.11
2022-09-20T00:39:29.882Z,1017.10
2022-09-20T00:40:29.927Z,1017.14
2022-09-20T00:41:29.912Z,1017.16
2022-09-20T00:42:29.872Z,1017.14
2022-09-20T00:43:29.872Z,1017.14
2022-09-20T00:44:29.869Z,1017.13
2022-09-20T00:45:29.933Z,1017.15
2022-09-20T00:46:29.861Z,1017.13
2022-09-20T00:47:29.861Z,1017.15
2022-09-20T00:48:29.859Z,1017.17
2022-09-20T00:49:29.859Z,1017.20
2022-09-20T00:50:29.852Z,1017.18
2022-09-20T00:51:29.855Z,1017.18
2022-09-20T00:52:29.851Z,1017.19
2022-09-20T00:53:29.868Z,1017.19
2022-09-20T00:54:29.843Z,1017.19
2022-09-20T00:55:29.844Z,1017.21
2022-09-20T00:56:29.840Z,1017.18
2022-09-20T00:57:29.836Z,1017.17
2022-09-20T00:58:29.835Z,1017.16
2022-09-20T00:59:29.836Z,1017.14
2022-09-20T01:00:29.833Z,1017.17
2022-09-20T01:01:29.914Z,1017.15
2022-09-20T01:02:29.929Z,1017.13
2022-09-20T01:03:29.827Z,1017.16
2022-09-20T01:04:29.829Z,1017.17
2022-09-20T01:05:29.822Z,1017.19
2022-09-20T01:06:29.818Z,1017.17
2022-09-20T01:07:29.812Z,1017.13
2022-09-20T01:08:29.811Z,1017.14
2022-09-20T01:09:29.939Z,1017.15
2022-09-20T01:10:29.809Z,1017.12
2022-09-20T01:11:29.805Z,1017.16
2022-09-20T01:12:29.799Z,1017.15
2022-09-20T01:13:29.809Z,1017.12
2022-09-20T01:14:29.794Z,1017.13
2022-09-20T01:15:29.806Z,1017.15
2022-09-20T01:16:29.847Z,1017.14
2022-09-20T01:17:29.791Z,1017.12
2022-09-20T01:18:29.787Z,1017.15
2022-09-20T01:19:29.785Z,1017.13
2022-09-20T01:20:29.781Z,1017.14
2022-09-20T01:21:29.781Z,1017.14
2022-09-20T01:22:29.775Z,1017.18
2022-09-20T01:23:29.777Z,1017.20
2022-09-20T01:24:29.782Z,1017.19
2022-09-20T01:25:29.786Z,1017.18
2022-09-20T01:26:29.766Z,1017.18
2022-09-20T01:27:29.766Z,1017.16
2022-09-20T01:28:29.761Z,1017.18
2022-09-20T01:29:29.761Z,1017.19
2022-09-20T01:30:29.758Z,1017.18
2022-09-20T01:31:29.816Z,1017.22
2022-09-20T01:32:29.753Z,1017.21
2022-09-20T01:33:29.751Z,1017.20
2022-09-20T01:34:29.747Z,1017.18
2022-09-20T01:35:29.754Z,1017.19
2022-09-20T01:36:29.743Z,1017.16
2022-09-20T01:37:29.748Z,1017.18
2022-09-20T01:38:29.752Z,1017.21
2022-09-20T01:39:29.753Z,1017.19
2022-09-20T01:40:29.764Z,1017.18
2022-09-20T01:41:29.751Z,1017.20
2022-09-20T01:42:29.733Z,1017.24
2022-09-20T01:43:29.730Z,1017.24
2022-09-20T01:44:29.723Z,1017.20
2022-09-20T01:45:29.835Z,1017.21
2022-09-20T01:46:29.727Z,1017.18
2022-09-20T01:47:29.721Z,1017.14
2022-09-20T01:48:29.719Z,1017.17
2022-09-20T01:49:29.719Z,1017.16
2022-09-20T01:50:29.709Z,1017.18
2022-09-20T01:51:29.710Z,1017.15
2022-09-20T01:52:29.711Z,1017.20
2022-09-20T01:53:29.709Z,1017.25
2022-09-20T01:54:29.703Z,1017.27
2022-09-20T01:55:29.701Z,1017.23
2022-09-20T01:56:29.696Z,1017.23
2022-09-20T01:57:29.713Z,1017.28
2022-09-20T01:58:29.691Z,1017.24
2022-09-20T01:59:30.077Z,1017.26
2022-09-20T02:00:29.691Z,1017.29
2022-09-20T02:01:29.810Z,1017.29
2022-09-20T02:02:29.731Z,1017.29
2022-09-20T02:03:29.681Z,1017.29
2022-09-20T02:04:29.678Z,1017.22
2022-09-20T02:05:29.692Z,1017.25
2022-09-20T02:06:29.675Z,1017.25
2022-09-20T02:07:29.677Z,1017.20
2022-09-20T02:08:29.671Z,1017.26
2022-09-20T02:09:29.669Z,1017.22
2022-09-20T02:10:29.665Z,1017.25
2022-09-20T02:11:29.665Z,1017.21
2022-09-20T02:12:33.559Z,1017.27
2022-09-20T02:13:29.678Z,1017.26
2022-09-20T02:14:29.658Z,1017.27
2022-09-20T02:15:29.661Z,1017.23
2022-09-20T02:16:29.745Z,1017.26
2022-09-20T02:17:29.650Z,1017.22
2022-09-20T02:18:29.647Z,1017.22
2022-09-20T02:19:29.647Z,1017.21
2022-09-20T02:20:29.643Z,1017.21
2022-09-20T02:21:29.643Z,1017.24
2022-09-20T02:22:29.639Z,1017.22
2022-09-20T02:23:29.636Z,1017.21
2022-09-20T02:24:29.635Z,1017.23
2022-09-20T02:25:29.638Z,1017.17
2022-09-20T02:26:29.629Z,1017.18
2022-09-20T02:27:29.633Z,1017.18
2022-09-20T02:28:29.624Z,1017.13
2022-09-20T02:29:29.645Z,1017.14
2022-09-20T02:30:29.622Z,1017.15
2022-09-20T02:31:29.714Z,1017.18
2022-09-20T02:32:29.616Z,1017.14
2022-09-20T02:33:29.617Z,1017.16
2022-09-20T02:34:29.612Z,1017.12
2022-09-20T02:35:29.609Z,1017.11
2022-09-20T02:36:29.607Z,1017.12
2022-09-20T02:37:29.605Z,1017.13
2022-09-20T02:38:29.604Z,1017.14
2022-09-20T02:39:29.603Z,1017.12
2022-09-20T02:40:29.667Z,1017.14
2022-09-20T02:41:29.598Z,1017.14
2022-09-20T02:42:29.593Z,1017.13
2022-09-20T02:43:29.593Z,1017.09
2022-09-20T02:44:29.613Z,1017.12
2022-09-20T02:45:29.661Z,1017.06
2022-09-20T02:46:29.589Z,1017.09
2022-09-20T02:47:29.581Z,1017.08
2022-09-20T02:48:29.582Z,1017.09
2022-09-20T02:49:29.582Z,1017.07
2022-09-20T02:50:29.577Z,1016.99
2022-09-20T02:51:29.572Z,1017.02
2022-09-20T02:52:29.572Z,1017.01
2022-09-20T02:53:29.574Z,1017.03
2022-09-20T02:54:29.585Z,1017.05
2022-09-20T02:55:29.565Z,1017.06
2022-09-20T02:56:29.563Z,1017.08
2022-09-20T02:57:29.570Z,1017.06
2022-09-20T02:58:29.557Z,1017.05
2022-09-20T02:59:29.557Z,1017.08
2022-09-20T03:00:29.553Z,1017.04
2022-09-20T03:01:29.623Z,1017.08
2022-09-20T03:02:29.606Z,1017.08
2022-09-20T03:03:29.548Z,1017.10
2022-09-20T03:04:29.544Z,1017.11
2022-09-20T03:05:29.545Z,1017.10
2022-09-20T03:06:29.540Z,1017.10
2022-09-20T03:07:29.539Z,1017.08
2022-09-20T03:08:29.535Z,1017.09
2022-09-20T03:09:29.537Z,1017.09
2022-09-20T03:10:29.531Z,1017.07
2022-09-20T03:11:29.531Z,1017.05
2022-09-20T03:12:29.527Z,1017.01
2022-09-20T03:13:29.528Z,1017.00
2022-09-20T03:14:29.520Z,1017.00
2022-09-20T03:15:29.523Z,1017.01
2022-09-20T03:16:29.677Z,1017.04
2022-09-20T03:17:29.538Z,1017.07
2022-09-20T03:18:29.513Z,1017.01
2022-09-20T03:19:29.523Z,1017.02
2022-09-20T03:20:29.508Z,1017.05
2022-09-20T03:21:29.511Z,1017.05
2022-09-20T03:22:29.505Z,1017.08
2022-09-20T03:23:29.504Z,1017.09
2022-09-20T03:24:29.503Z,1017.08
2022-09-20T03:25:29.496Z,1017.08
2022-09-20T03:26:29.498Z,1017.05
2022-09-20T03:27:29.493Z,1017.09
2022-09-20T03:28:29.494Z,1017.06
2022-09-20T03:29:29.492Z,1017.07
2022-09-20T03:30:29.488Z,1017.04
2022-09-20T03:31:29.523Z,1017.03
2022-09-20T03:32:29.486Z,1017.05
2022-09-20T03:33:29.502Z,1017.04
2022-09-20T03:34:29.482Z,1017.02
2022-09-20T03:35:29.476Z,1017.06
2022-09-20T03:36:29.475Z,1017.06
2022-09-20T03:37:29.472Z,1017.06
2022-09-20T03:38:29.471Z,1017.04
2022-09-20T03:39:29.467Z,1017.09
2022-09-20T03:40:29.588Z,1017.08
2022-09-20T03:41:29.462Z,1017.05
2022-09-20T03:42:29.461Z,1017.05
2022-09-20T03:43:29.469Z,1017.03
2022-09-20T03:44:29.462Z,1017.00
2022-09-20T03:45:29.512Z,1016.96
2022-09-20T03:46:29.453Z,1016.95
2022-09-20T03:47:29.453Z,1016.98
2022-09-20T03:48:29.447Z,1017.00
2022-09-20T03:49:29.464Z,1017.03
2022-09-20T03:50:29.454Z,1016.97
2022-09-20T03:51:33.919Z,1017.06
2022-09-20T03:52:29.442Z,1017.03
2022-09-20T03:53:29.437Z,1017.04
2022-09-20T03:54:29.432Z,1017.06
2022-09-20T03:55:29.429Z,1017.05
2022-09-20T03:56:29.433Z,1017.08
2022-09-20T03:57:29.430Z,1017.06
2022-09-20T03:58:29.426Z,1017.06
2022-09-20T03:59:29.429Z,1017.13
2022-09-20T04:00:29.427Z,1017.12
2022-09-20T04:01:29.461Z,1017.11
2022-09-20T04:02:29.515Z,1017.11
2022-09-20T04:03:29.414Z,1017.14
2022-09-20T04:04:29.415Z,1017.14
2022-09-20T04:05:29.430Z,1017.12
2022-09-20T04:06:29.408Z,1017.12
2022-09-20T04:07:29.406Z,1017.16
2022-09-20T04:08:29.404Z,1017.11
2022-09-20T04:09:29.402Z,1017.13
2022-09-20T04:10:29.402Z,1017.13
2022-09-20T04:11:29.409Z,1017.13
2022-09-20T04:12:29.397Z,1017.18
2022-09-20T04:13:29.397Z,1017.14
2022-09-20T04:14:29.404Z,1017.13
2022-09-20T04:15:29.397Z,1017.12
2022-09-20T04:16:29.474Z,1017.15
2022-09-20T04:17:29.384Z,1017.17
2022-09-20T04:18:29.382Z,1017.13
2022-09-20T04:19:32.872Z,1017.16
2022-09-20T04:20:29.378Z,1017.15
2022-09-20T04:21:29.393Z,1017.17
2022-09-20T04:22:29.373Z,1017.17
2022-09-20T04:23:29.371Z,1017.17
2022-09-20T04:24:29.377Z,1017.15
2022-09-20T04:25:29.364Z,1017.14
2022-09-20T04:26:29.371Z,1017.13
2022-09-20T04:27:29.368Z,1017.17
2022-09-20T04:28:29.360Z,1017.14
2022-09-20T04:29:29.357Z,1017.15
2022-09-20T04:30:29.353Z,1017.10
2022-09-20T04:31:29.384Z,1017.11
2022-09-20T04:32:29.349Z,1017.15
2022-09-20T04:33:29.349Z,1017.13
2022-09-20T04:34:29.348Z,1017.14
2022-09-20T04:35:29.341Z,1017.15
2022-09-20T04:36:29.342Z,1017.15
2022-09-20T04:37:29.358Z,1017.15
2022-09-20T04:38:29.337Z,1017.16
2022-09-20T04:39:29.337Z,1017.16
2022-09-20T04:40:29.395Z,1017.15
2022-09-20T04:41:29.337Z,1017.16
2022-09-20T04:42:29.332Z,1017.13
2022-09-20T04:43:29.323Z,1017.16
2022-09-20T04:44:29.322Z,1017.14
2022-09-20T04:45:29.376Z,1017.15
2022-09-20T04:46:29.320Z,1017.16
2022-09-20T04:47:29.314Z,1017.16
2022-09-20T04:48:29.313Z,1017.17
2022-09-20T04:49:29.311Z,1017.20
2022-09-20T04:50:29.310Z,1017.13
2022-09-20T04:51:29.307Z,1017.15
2022-09-20T04:52:29.303Z,1017.17
2022-09-20T04:53:29.321Z,1017.13
2022-09-20T04:54:29.299Z,1017.18
2022-09-20T04:55:29.300Z,1017.22
2022-09-20T04:56:29.300Z,1017.19
2022-09-20T04:57:29.296Z,1017.22
2022-09-20T04:58:29.399Z,1017.28
2022-09-20T04:59:29.324Z,1017.25
2022-09-20T05:00:29.290Z,1017.22
2022-09-20T05:01:32.326Z,1017.27
2022-09-20T05:02:29.360Z,1017.27
2022-09-20T05:03:29.283Z,1017.28
2022-09-20T05:04:29.281Z,1017.34
2022-09-20T05:05:29.280Z,1017.33
2022-09-20T05:06:29.274Z,1017.34
2022-09-20T05:07:29.272Z,1017.33
2022-09-20T05:08:29.271Z,1017.37
2022-09-20T05:09:29.285Z,1017.41
2022-09-20T05:10:29.267Z,1017.40
2022-09-20T05:11:29.263Z,1017.46
2022-09-20T05:12:29.263Z,1017.45
2022-09-20T05:13:29.260Z,1017.47
2022-09-20T05:14:29.258Z,1017.48
2022-09-20T05:15:29.253Z,1017.49
2022-09-20T05:16:29.310Z,1017.49
2022-09-20T05:17:29.252Z,1017.47
2022-09-20T05:18:29.247Z,1017.47
2022-09-20T05:19:29.244Z,1017.47
2022-09-20T05:20:29.244Z,1017.49
2022-09-20T05:21:29.242Z,1017.47
2022-09-20T05:22:29.239Z,1017.49
2022-09-20T05:23:29.236Z,1017.50
2022-09-20T05:24:29.236Z,1017.54
2022-09-20T05:25:29.253Z,1017.51
2022-09-20T05:26:29.237Z,1017.53
2022-09-20T05:27:29.231Z,1017.50
2022-09-20T05:28:29.228Z,1017.45
2022-09-20T05:29:29.224Z,1017.47
2022-09-20T05:30:29.221Z,1017.48
2022-09-20T05:31:29.264Z,1017.43
2022-09-20T05:32:29.218Z,1017.48
2022-09-20T05:33:29.213Z,1017.46
2022-09-20T05:34:29.212Z,1017.44
2022-09-20T05:35:29.209Z,1017.43
2022-09-20T05:36:34.248Z,1017.47
2022-09-20T05:37:29.205Z,1017.47
2022-09-20T05:39:29.203Z,1017.50
2022-09-20T05:40:29.276Z,1017.52
2022-09-20T05:41:29.219Z,1017.52
2022-09-20T05:42:29.201Z,1017.54
2022-09-20T05:43:29.191Z,1017.57
2022-09-20T05:44:29.192Z,1017.55
2022-09-20T05:45:29.226Z,1017.57
2022-09-20T05:46:29.186Z,1017.59
2022-09-20T05:47:29.181Z,1017.60
2022-09-20T05:48:29.192Z,1017.61
2022-09-20T05:49:29.189Z,1017.65
2022-09-20T05:50:29.179Z,1017.63
2022-09-20T05:51:29.172Z,1017.67
2022-09-20T05:52:29.172Z,1017.62
2022-09-20T05:53:29.167Z,1017.60
2022-09-20T05:54:29.165Z,1017.68
2022-09-20T05:55:29.164Z,1017.68
2022-09-20T05:56:29.167Z,1017.67
2022-09-20T05:57:29.189Z,1017.68
2022-09-20T05:58:29.164Z,1017.69
2022-09-20T05:59:29.157Z,1017.67
2022-09-20T06:00:29.156Z,1017.68
2022-09-20T06:01:29.181Z,1017.68
2022-09-20T06:02:29.242Z,1017.66
2022-09-20T06:03:29.151Z,1017.64
2022-09-20T06:04:29.151Z,1017.63
2022-09-20T06:05:29.153Z,1017.69
2022-09-20T06:06:32.392Z,1017.70
2022-09-20T06:07:29.138Z,1017.70
2022-09-20T06:08:29.138Z,1017.74
2022-09-20T06:09:29.136Z,1017.72
2022-09-20T06:10:29.136Z,1017.75
2022-09-20T06:11:29.141Z,1017.73
2022-09-20T06:12:29.132Z,1017.71
2022-09-20T06:13:29.148Z,1017.74
2022-09-20T06:14:29.126Z,1017.71
2022-09-20T06:15:29.123Z,1017.72
2022-09-20T06:16:29.162Z,1017.75
2022-09-20T06:17:29.119Z,1017.72
2022-09-20T06:18:29.116Z,1017.72
2022-09-20T06:19:29.117Z,1017.71
2022-09-20T06:20:29.111Z,1017.72
2022-09-20T06:21:29.115Z,1017.70
2022-09-20T06:22:29.111Z,1017.70
2022-09-20T06:23:29.106Z,1017.67
2022-09-20T06:24:29.105Z,1017.61
2022-09-20T06:25:29.103Z,1017.66
2022-09-20T06:26:29.101Z,1017.66
2022-09-20T06:27:29.096Z,1017.70
2022-09-20T06:28:29.095Z,1017.74
2022-09-20T06:29:29.119Z,1017.74
2022-09-20T06:30:29.164Z,1017.75
2022-09-20T06:31:29.086Z,1017.75
2022-09-20T06:32:29.088Z,1017.77
2022-09-20T06:33:29.084Z,1017.81
2022-09-20T06:34:29.086Z,1017.80
2022-09-20T06:35:29.081Z,1017.77
2022-09-20T06:36:29.084Z,1017.81
2022-09-20T06:37:29.076Z,1017.78
2022-09-20T06:38:29.074Z,1017.80
2022-09-20T06:39:29.071Z,1017.82
2022-09-20T06:40:29.112Z,1017.85
2022-09-20T06:41:29.877Z,1017.90
2022-09-20T06:42:29.066Z,1017.88
2022-09-20T06:43:29.063Z,1017.90
2022-09-20T06:44:29.063Z,1017.89
2022-09-20T06:45:29.080Z,1017.86
2022-09-20T06:46:29.065Z,1017.89
2022-09-20T06:47:29.057Z,1017.88
2022-09-20T06:48:29.053Z,1017.84
2022-09-20T06:49:29.051Z,1017.85
2022-09-20T06:50:29.050Z,1017.85
2022-09-20T06:51:29.051Z,1017.85
2022-09-20T06:52:29.047Z,1017.86
2022-09-20T06:53:29.042Z,1017.87
2022-09-20T06:54:29.043Z,1017.86
2022-09-20T06:55:29.511Z,1017.90
2022-09-20T06:56:29.036Z,1017.92
2022-09-20T06:57:29.039Z,1017.93
2022-09-20T06:58:29.035Z,1017.93
2022-09-20T06:59:29.188Z,1017.92
2022-09-20T07:00:29.028Z,1017.94
2022-09-20T07:01:30.647Z,1017.95
2022-09-20T07:02:29.115Z,1017.97
2022-09-20T07:03:29.020Z,1017.99
2022-09-20T07:04:29.024Z,1017.98
2022-09-20T07:05:29.016Z,1018.02
2022-09-20T07:06:29.015Z,1018.01
2022-09-20T07:07:29.014Z,1017.99
2022-09-20T07:08:29.012Z,1018.03
2022-09-20T07:09:29.006Z,1018.05
2022-09-20T07:10:29.008Z,1018.03
2022-09-20T07:11:29.005Z,1018.07
2022-09-20T07:12:29.003Z,1018.06
2022-09-20T07:13:29.000Z,1018.09
2022-09-20T07:14:28.997Z,1018.11
2022-09-20T07:15:28.994Z,1018.12
2022-09-20T07:16:29.051Z,1018.15
2022-09-20T07:17:29.006Z,1018.19
2022-09-20T07:18:28.991Z,1018.13
2022-09-20T07:19:28.984Z,1018.20
2022-09-20T07:20:28.983Z,1018.20
2022-09-20T07:21:28.982Z,1018.19
2022-09-20T07:22:28.982Z,1018.23
2022-09-20T07:23:28.975Z,1018.21
2022-09-20T07:24:28.973Z,1018.20
2022-09-20T07:25:28.972Z,1018.22
2022-09-20T07:26:28.972Z,1018.20
2022-09-20T07:27:29.546Z,1018.15
2022-09-20T07:28:28.968Z,1018.17
2022-09-20T07:29:28.963Z,1018.19
2022-09-20T07:30:28.960Z,1018.21
2022-09-20T07:31:29.004Z,1018.19
2022-09-20T07:32:28.961Z,1018.18
2022-09-20T07:33:28.974Z,1018.18
2022-09-20T07:34:28.955Z,1018.20
2022-09-20T07:35:28.950Z,1018.22
2022-09-20T07:36:28.949Z,1018.20
2022-09-20T07:37:28.947Z,1018.19
2022-09-20T07:38:28.947Z,1018.18
2022-09-20T07:39:28.943Z,1018.14
2022-09-20T07:40:28.993Z,1018.10
2022-09-20T07:41:28.941Z,1018.11
2022-09-20T07:42:28.937Z,1018.18
2022-09-20T07:43:28.936Z,1018.14
2022-09-20T07:44:28.932Z,1018.09
2022-09-20T07:45:28.986Z,1018.15
2022-09-20T07:46:28.929Z,1018.17
2022-09-20T07:47:28.928Z,1018.26
2022-09-20T07:48:30.176Z,1018.20
2022-09-20T07:49:28.945Z,1018.15
2022-09-20T07:50:28.926Z,1018.13
2022-09-20T07:51:28.923Z,1018.11
2022-09-20T07:52:28.920Z,1018.14
2022-09-20T07:53:28.918Z,1018.12
2022-09-20T07:54:28.917Z,1018.13
2022-09-20T07:55:28.914Z,1018.31
2022-09-20T07:56:28.914Z,1018.20
2022-09-20T07:57:28.912Z,1018.17
2022-09-20T07:58:28.909Z,1018.16
2022-09-20T07:59:28.907Z,1018.25
2022-09-20T08:00:28.904Z,1018.21
2022-09-20T08:01:28.968Z,1018.28
2022-09-20T08:02:28.943Z,1018.24
2022-09-20T08:03:28.899Z,1018.29
2022-09-20T08:04:28.899Z,1018.29
2022-09-20T08:05:28.921Z,1018.28
2022-09-20T08:06:28.894Z,1018.35
2022-09-20T08:07:28.915Z,1018.43
2022-09-20T08:08:28.898Z,1018.44
2022-09-20T08:09:28.900Z,1018.41
2022-09-20T08:10:28.893Z,1018.39
2022-09-20T08:11:28.905Z,1018.33
2022-09-20T08:14:28.887Z,1018.29
2022-09-20T08:15:28.887Z,1018.31
2022-09-20T08:16:28.942Z,1018.33
2022-09-20T08:17:28.884Z,1018.27
2022-09-20T08:18:28.881Z,1018.25
2022-09-20T08:19:28.883Z,1018.28
2022-09-20T08:20:28.880Z,1018.23
2022-09-20T08:21:28.896Z,1018.20
2022-09-20T08:22:28.873Z,1018.22
2022-09-20T08:23:28.875Z,1018.23
2022-09-20T08:24:28.874Z,1018.15
2022-09-20T08:25:28.871Z,1018.16
2022-09-20T08:26:28.871Z,1018.16
2022-09-20T08:27:28.868Z,1018.16
2022-09-20T08:28:28.885Z,1018.22
2022-09-20T08:29:28.866Z,1018.29
2022-09-20T08:30:28.862Z,1018.32
2022-09-20T08:31:28.913Z,1018.35
2022-09-20T08:32:28.869Z,1018.32
2022-09-20T08:33:28.860Z,1018.33
2022-09-20T08:34:28.858Z,1018.33
2022-09-20T08:35:28.855Z,1018.40
2022-09-20T08:36:33.722Z,1018.36
2022-09-20T08:37:28.881Z,1018.33
2022-09-20T08:40:28.905Z,1018.35
2022-09-20T08:41:28.847Z,1018.35
2022-09-20T08:42:33.601Z,1018.34
2022-09-20T08:43:28.844Z,1018.31
2022-09-20T08:44:28.840Z,1018.34
2022-09-20T08:45:35.967Z,1018.36
2022-09-20T08:46:28.965Z,1018.37
2022-09-20T08:47:28.834Z,1018.37
2022-09-20T08:48:28.832Z,1018.33
2022-09-20T08:49:28.833Z,1018.37
2022-09-20T08:50:28.842Z,1018.38
2022-09-20T08:51:28.828Z,1018.43
2022-09-20T08:52:28.836Z,1018.38
2022-09-20T08:53:28.878Z,1018.40
2022-09-20T08:54:32.303Z,1018.39
2022-09-20T08:55:28.825Z,1018.45
2022-09-20T08:56:28.819Z,1018.42
2022-09-20T08:57:28.819Z,1018.40
2022-09-20T08:58:28.814Z,1018.45
2022-09-20T08:59:30.719Z,1018.43
2022-09-20T09:00:28.817Z,1018.46
2022-09-20T09:01:28.877Z,1018.48
2022-09-20T09:02:28.863Z,1018.46
2022-09-20T09:03:28.807Z,1018.46
2022-09-20T09:04:28.803Z,1018.49
2022-09-20T09:05:28.805Z,1018.47
2022-09-20T09:06:28.802Z,1018.50
2022-09-20T09:07:28.805Z,1018.50
2022-09-20T09:08:28.799Z,1018.46
2022-09-20T09:09:28.820Z,1018.46
2022-09-20T09:10:28.794Z,1018.49
2022-09-20T09:11:28.793Z,1018.51
2022-09-20T09:12:28.790Z,1018.52
2022-09-20T09:13:28.788Z,1018.50
2022-09-20T09:14:28.785Z,1018.47
2022-09-20T09:15:28.782Z,1018.52
2022-09-20T09:16:34.634Z,1018.49
2022-09-20T09:17:28.784Z,1018.47
2022-09-20T09:18:31.601Z,1018.47
2022-09-20T09:19:33.285Z,1018.47
2022-09-20T09:20:28.773Z,1018.49
2022-09-20T09:21:28.777Z,1018.46
2022-09-20T09:22:28.767Z,1018.46
2022-09-20T09:23:28.769Z,1018.44
2022-09-20T09:24:28.767Z,1018.49
2022-09-20T09:25:28.794Z,1018.50
2022-09-20T09:26:28.763Z,1018.48
2022-09-20T09:27:28.760Z,1018.47
2022-09-20T09:28:28.755Z,1018.47
2022-09-20T09:29:32.888Z,1018.46
2022-09-20T09:30:28.751Z,1018.43
2022-09-20T09:31:28.895Z,1018.43
2022-09-20T09:32:28.748Z,1018.46
2022-09-20T09:33:28.748Z,1018.40
2022-09-20T09:34:28.741Z,1018.37
2022-09-20T09:35:28.742Z,1018.38
2022-09-20T09:36:28.740Z,1018.36
2022-09-20T09:37:29.210Z,1018.37
2022-09-20T09:38:28.736Z,1018.36
2022-09-20T09:39:28.736Z,1018.38
2022-09-20T09:40:28.774Z,1018.38
2022-09-20T09:41:28.747Z,1018.38
2022-09-20T09:42:28.732Z,1018.36
2022-09-20T09:43:28.728Z,1018.40
2022-09-20T09:44:28.729Z,1018.43
2022-09-20T09:45:28.790Z,1018.37
2022-09-20T09:46:28.717Z,1018.39
2022-09-20T09:47:28.741Z,1018.39
2022-09-20T09:48:28.731Z,1018.40
2022-09-20T09:49:28.719Z,1018.35
2022-09-20T09:50:28.714Z,1018.36
2022-09-20T09:51:28.710Z,1018.38
2022-09-20T09:52:28.711Z,1018.42
2022-09-20T09:53:28.708Z,1018.40
2022-09-20T09:54:28.703Z,1018.37
2022-09-20T09:55:28.704Z,1018.38
2022-09-20T09:56:28.708Z,1018.37
2022-09-20T09:57:28.719Z,1018.36
2022-09-20T09:58:28.696Z,1018.40
2022-09-20T09:59:28.698Z,1018.37
2022-09-20T10:00:28.690Z,1018.41
2022-09-20T10:01:33.115Z,1018.38
2022-09-20T10:02:28.736Z,1018.38
2022-09-20T10:03:28.687Z,1018.40
2022-09-20T10:04:28.687Z,1018.37
2022-09-20T10:05:28.684Z,1018.36
2022-09-20T10:06:28.678Z,1018.37
2022-09-20T10:07:28.680Z,1018.40
2022-09-20T10:08:28.683Z,1018.40
2022-09-20T10:09:28.684Z,1018.37
2022-09-20T10:10:28.675Z,1018.39
2022-09-20T10:11:31.124Z,1018.39
2022-09-20T10:12:28.669Z,1018.41
2022-09-20T10:13:28.692Z,1018.40
2022-09-20T10:14:28.665Z,1018.37
2022-09-20T10:15:28.680Z,1018.38
2022-09-20T10:16:28.704Z,1018.39
2022-09-20T10:17:28.661Z,1018.40
2022-09-20T10:18:28.654Z,1018.31
2022-09-20T10:19:28.658Z,1018.34
2022-09-20T10:20:28.668Z,1018.34
2022-09-20T10:21:28.658Z,1018.34
2022-09-20T10:22:28.646Z,1018.30
2022-09-20T10:23:58.522Z,1018.31
2022-09-20T10:24:28.643Z,1018.32
2022-09-20T10:25:28.643Z,1018.32
2022-09-20T10:26:28.640Z,1018.28
2022-09-20T10:27:28.644Z,1018.29
2022-09-20T10:28:28.635Z,1018.29
2022-09-20T10:29:28.652Z,1018.27
2022-09-20T10:30:28.631Z,1018.32
2022-09-20T10:31:28.741Z,1018.31
2022-09-20T10:32:28.627Z,1018.35
2022-09-20T10:33:28.628Z,1018.34
2022-09-20T10:34:28.622Z,1018.33
2022-09-20T10:35:28.621Z,1018.31
2022-09-20T10:36:28.621Z,1018.36
2022-09-20T10:37:28.624Z,1018.36
2022-09-20T10:38:28.621Z,1018.33
2022-09-20T10:39:28.618Z,1018.37
2022-09-20T10:40:28.708Z,1018.36
2022-09-20T10:41:28.614Z,1018.36
2022-09-20T10:42:28.610Z,1018.38
2022-09-20T10:43:28.607Z,1018.39
2022-09-20T10:44:28.603Z,1018.39
2022-09-20T10:45:59.170Z,1018.42
2022-09-20T10:46:32.219Z,1018.46
2022-09-20T10:47:28.636Z,1018.43
2022-09-20T10:48:28.594Z,1018.43
2022-09-20T10:49:28.595Z,1018.39
2022-09-20T10:50:28.589Z,1018.44
2022-09-20T10:51:28.604Z,1018.41
2022-09-20T10:52:28.589Z,1018.40
2022-09-20T10:53:28.585Z,1018.44
2022-09-20T10:54:28.584Z,1018.46
2022-09-20T10:55:28.581Z,1018.46
2022-09-20T10:56:28.578Z,1018.47
2022-09-20T10:57:28.580Z,1018.46
2022-09-20T10:58:28.574Z,1018.46
2022-09-20T10:59:28.575Z,1018.45
2022-09-20T11:00:28.569Z,1018.44
2022-09-20T11:01:28.687Z,1018.48
2022-09-20T11:02:28.647Z,1018.49
2022-09-20T11:03:28.567Z,1018.51
2022-09-20T11:04:28.561Z,1018.51
2022-09-20T11:05:28.568Z,1018.52
2022-09-20T11:06:28.555Z,1018.45
2022-09-20T11:07:28.557Z,1018.46
2022-09-20T11:08:28.553Z,1018.48
2022-09-20T11:09:28.550Z,1018.47
2022-09-20T11:10:28.545Z,1018.48
2022-09-20T11:11:28.546Z,1018.49
2022-09-20T11:12:28.545Z,1018.52
2022-09-20T11:13:28.545Z,1018.52
2022-09-20T11:14:28.551Z,1018.56
2022-09-20T11:15:28.539Z,1018.57
2022-09-20T11:16:28.559Z,1018.51
2022-09-20T11:17:28.559Z,1018.56
2022-09-20T11:18:28.529Z,1018.59
2022-09-20T11:19:28.527Z,1018.58
2022-09-20T11:20:28.776Z,1018.55
2022-09-20T11:21:28.525Z,1018.54
2022-09-20T11:22:28.522Z,1018.59
2022-09-20T11:23:31.474Z,1018.57
2022-09-20T11:24:28.520Z,1018.62
2022-09-20T11:25:29.730Z,1018.60
2022-09-20T11:26:28.515Z,1018.61
2022-09-20T11:27:28.513Z,1018.57
2022-09-20T11:28:28.510Z,1018.59
2022-09-20T11:29:28.507Z,1018.56
2022-09-20T11:30:28.504Z,1018.57
2022-09-20T11:31:28.537Z,1018.59
2022-09-20T11:32:28.499Z,1018.60
2022-09-20T11:33:28.520Z,1018.60
2022-09-20T11:34:28.494Z,1018.62
2022-09-20T11:35:28.500Z,1018.58
2022-09-20T11:36:28.490Z,1018.60
2022-09-20T11:37:28.494Z,1018.59
2022-09-20T11:38:28.488Z,1018.61
2022-09-20T11:39:28.485Z,1018.61
2022-09-20T11:40:28.586Z,1018.65
2022-09-20T11:41:28.492Z,1018.69
2022-09-20T11:42:28.483Z,1018.70
2022-09-20T11:43:28.480Z,1018.67
2022-09-20T11:44:28.483Z,1018.70
2022-09-20T11:45:28.863Z,1018.66
2022-09-20T11:46:28.474Z,1018.70
2022-09-20T11:47:52.601Z,1018.68
2022-09-20T11:48:28.474Z,1018.71
2022-09-20T11:49:28.499Z,1018.71
2022-09-20T11:50:28.462Z,1018.68
2022-09-20T11:51:28.463Z,1018.68
2022-09-20T11:52:28.460Z,1018.71
2022-09-20T11:53:29.714Z,1018.71
2022-09-20T11:54:28.456Z,1018.69
2022-09-20T11:55:28.458Z,1018.68
2022-09-20T11:56:28.457Z,1018.65
2022-09-20T11:57:28.452Z,1018.69
2022-09-20T11:58:28.458Z,1018.67
2022-09-20T11:59:28.456Z,1018.68
2022-09-20T12:00:28.452Z,1018.69
2022-09-20T12:01:28.890Z,1018.67
2022-09-20T12:02:28.571Z,1018.67
2022-09-20T12:03:28.498Z,1018.68
2022-09-20T12:04:32.919Z,1018.65
2022-09-20T12:05:28.459Z,1018.67
2022-09-20T12:06:28.435Z,1018.68
2022-09-20T12:07:28.435Z,1018.66
2022-09-20T12:08:28.438Z,1018.61
2022-09-20T12:09:28.433Z,1018.63
2022-09-20T12:10:28.434Z,1018.62